Time;durP1;ratioP1;P1;durP2;ratioP2;P2;SDS_P1;SDS_P2;PMS_P1;PMS_P2;Temp;Humidity;BMP_temperature;BMP_pressure;BME280_temperature;BME280_humidity;BME280_pressure;Samples;Min_cycle;Max_cycle;Signal;HPM_P1;HPM_P2
2022/03/01 00:01:10;;;;;;;6.03;2.00;;;;;;;;;;5016875;28;20363;-65
2022/03/01 00:03:36;;;;;;;6.47;2.00;;;;;;;;;;5016874;28;20026;-65
2022/03/01 00:06:02;;;;;;;7.20;2.00;;;;;;;;;;5016957;28;20666;-65
2022/03/01 00:08:30;;;;;;;6.78;2.30;;;;;;;;;;5016606;28;20065;-65
2022/03/01 00:10:56;;;;;;;4.85;2.20;;;;;;;;;;5016774;28;20088;-66
2022/03/01 00:13:21;;;;;;;7.80;2.28;;;;;;;;;;5017103;28;20029;-65
2022/03/01 00:15:47;;;;;;;5.75;1.92;;;;;;;;;;5016858;28;20034;-65
2022/03/01 00:18:13;;;;;;;4.93;1.90;;;;;;;;;;5016633;28;20033;-66
2022/03/01 00:20:39;;;;;;;9.63;2.33;;;;;;;;;;5017114;28;20018;-65
2022/03/01 00:23:04;;;;;;;4.20;2.20;;;;;;;;;;5016936;28;20389;-65
2022/03/01 00:25:30;;;;;;;6.55;2.03;;;;;;;;;;5016586;28;20026;-65
2022/03/01 00:27:55;;;;;;;7.05;2.17;;;;;;;;;;5015272;28;20029;-65
2022/03/01 00:30:21;;;;;;;5.30;2.10;;;;;;;;;;5016323;28;20022;-65
2022/03/01 00:32:46;;;;;;;6.80;2.15;;;;;;;;;;5016573;28;20046;-66
2022/03/01 00:35:12;;;;;;;5.35;2.15;;;;;;;;;;5016806;28;20025;-66
2022/03/01 00:37:37;;;;;;;5.45;2.00;;;;;;;;;;5016653;28;20096;-65
2022/03/01 00:40:04;;;;;;;8.00;2.03;;;;;;;;;;5016423;28;20135;-65
2022/03/01 00:42:30;;;;;;;5.72;2.10;;;;;;;;;;5016659;28;20026;-65
2022/03/01 00:44:56;;;;;;;6.47;2.20;;;;;;;;;;5016259;28;20084;-65
2022/03/01 00:47:22;;;;;;;4.80;1.90;;;;;;;;;;5016536;28;20026;-66
2022/03/01 00:49:48;;;;;;;4.35;1.90;;;;;;;;;;5014025;28;20104;-66
2022/03/01 00:52:13;;;;;;;6.30;2.03;;;;;;;;;;5013342;28;20021;-66
2022/03/01 00:54:39;;;;;;;9.70;2.35;;;;;;;;;;5013258;28;20471;-66
2022/03/01 00:57:04;;;;;;;8.13;1.90;;;;;;;;;;5013571;28;20351;-65
2022/03/01 00:59:30;;;;;;;5.40;2.13;;;;;;;;;;5013199;28;20080;-65
2022/03/01 01:01:55;;;;;;;6.10;2.10;;;;;;;;;;5013228;28;20026;-66
2022/03/01 01:04:21;;;;;;;8.85;2.20;;;;;;;;;;5013320;28;20022;-66
2022/03/01 01:06:46;;;;;;;7.90;2.05;;;;;;;;;;5012961;28;20030;-66
2022/03/01 01:09:14;;;;;;;9.45;2.25;;;;;;;;;;5012799;28;20022;-66
2022/03/01 01:11:40;;;;;;;7.70;2.03;;;;;;;;;;5013104;28;20022;-66
2022/03/01 01:14:05;;;;;;;9.65;2.28;;;;;;;;;;5013215;28;20131;-66
2022/03/01 01:16:31;;;;;;;8.55;2.20;;;;;;;;;;5013156;28;20486;-66
2022/03/01 01:18:56;;;;;;;9.43;1.90;;;;;;;;;;5012837;28;20113;-65
2022/03/01 01:21:22;;;;;;;6.57;1.77;;;;;;;;;;5013119;28;20401;-65
2022/03/01 01:23:47;;;;;;;8.80;2.03;;;;;;;;;;5012694;28;20505;-65
2022/03/01 01:26:13;;;;;;;9.15;1.80;;;;;;;;;;5012706;28;20397;-65
2022/03/01 01:28:38;;;;;;;7.43;1.83;;;;;;;;;;5012620;28;20040;-65
2022/03/01 01:31:04;;;;;;;10.10;1.83;;;;;;;;;;5012333;28;20497;-65
2022/03/01 01:33:30;;;;;;;11.77;2.10;;;;;;;;;;5012883;28;20392;-65
2022/03/01 01:35:55;;;;;;;6.70;2.08;;;;;;;;;;5012734;28;20018;-65
2022/03/01 01:38:21;;;;;;;7.25;1.95;;;;;;;;;;5012521;28;20021;-65
2022/03/01 01:40:46;;;;;;;9.32;1.98;;;;;;;;;;5012367;28;20026;-65
2022/03/01 01:43:12;;;;;;;9.27;1.80;;;;;;;;;;5012293;28;20026;-65
2022/03/01 01:45:37;;;;;;;10.18;2.10;;;;;;;;;;5012419;28;20295;-65
2022/03/01 01:48:03;;;;;;;7.82;1.77;;;;;;;;;;5012496;28;20057;-65
2022/03/01 01:50:32;;;;;;;9.02;1.88;;;;;;;;;;5012081;28;20034;-65
2022/03/01 01:52:57;;;;;;;5.32;2.15;;;;;;;;;;5012795;28;20391;-65
2022/03/01 01:55:25;;;;;;;5.85;1.75;;;;;;;;;;5012618;28;20026;-65
2022/03/01 01:57:50;;;;;;;6.18;1.65;;;;;;;;;;5012229;28;20021;-65
2022/03/01 02:00:17;;;;;;;7.68;1.92;;;;;;;;;;5012060;28;20025;-65
2022/03/01 02:02:42;;;;;;;7.47;1.85;;;;;;;;;;5011868;28;20080;-65
2022/03/01 02:05:09;;;;;;;6.35;2.33;;;;;;;;;;5012312;28;20029;-65
2022/03/01 02:07:35;;;;;;;5.93;2.20;;;;;;;;;;5012030;28;20034;-66
2022/03/01 02:10:01;;;;;;;8.60;2.20;;;;;;;;;;5011795;28;20026;-65
2022/03/01 02:12:26;;;;;;;7.47;2.20;;;;;;;;;;5012262;28;20029;-66
2022/03/01 02:14:52;;;;;;;5.28;1.67;;;;;;;;;;5011886;28;20097;-66
2022/03/01 02:17:18;;;;;;;10.10;2.20;;;;;;;;;;5012138;28;20025;-66
2022/03/01 02:19:47;;;;;;;5.50;2.10;;;;;;;;;;5011613;28;20026;-65
2022/03/01 02:22:13;;;;;;;7.07;1.80;;;;;;;;;;5011624;28;20109;-65
2022/03/01 02:24:38;;;;;;;8.38;2.05;;;;;;;;;;5011615;28;20129;-65
2022/03/01 02:27:05;;;;;;;7.60;1.90;;;;;;;;;;5011707;28;20097;-65
2022/03/01 02:29:31;;;;;;;8.13;2.20;;;;;;;;;;5011380;28;20057;-65
2022/03/01 02:32:00;;;;;;;5.55;1.83;;;;;;;;;;5011419;28;20288;-66
2022/03/01 02:34:25;;;;;;;6.88;2.00;;;;;;;;;;5011324;28;20050;-65
2022/03/01 02:36:51;;;;;;;8.75;1.90;;;;;;;;;;5011594;28;20034;-65
2022/03/01 02:39:17;;;;;;;7.53;1.92;;;;;;;;;;5011281;28;20574;-65
2022/03/01 02:41:44;;;;;;;10.40;1.95;;;;;;;;;;5011473;28;20295;-65
2022/03/01 02:44:10;;;;;;;7.88;2.05;;;;;;;;;;5011127;28;20041;-66
2022/03/01 02:46:37;;;;;;;9.55;2.03;;;;;;;;;;5011648;28;20026;-65
2022/03/01 02:49:04;;;;;;;6.13;1.90;;;;;;;;;;5011144;28;20037;-66
2022/03/01 02:51:30;;;;;;;8.90;1.98;;;;;;;;;;5011269;28;20057;-66
2022/03/01 02:53:55;;;;;;;6.80;1.88;;;;;;;;;;5011357;28;20464;-66
2022/03/01 02:56:21;;;;;;;8.55;2.00;;;;;;;;;;5011101;28;20393;-65
2022/03/01 02:58:47;;;;;;;5.35;1.80;;;;;;;;;;5011218;28;20068;-65
2022/03/01 03:01:12;;;;;;;7.32;1.67;;;;;;;;;;5010774;28;20187;-64
2022/03/01 03:03:38;;;;;;;12.57;2.17;;;;;;;;;;5011020;28;20454;-65
2022/03/01 03:06:04;;;;;;;8.23;2.17;;;;;;;;;;5011086;28;20030;-66
2022/03/01 03:08:30;;;;;;;6.45;1.88;;;;;;;;;;5011188;28;20026;-65
2022/03/01 03:10:56;;;;;;;13.30;2.10;;;;;;;;;;5011207;28;20087;-66
2022/03/01 03:13:21;;;;;;;10.57;2.05;;;;;;;;;;5010430;28;20291;-65
2022/03/01 03:15:47;;;;;;;7.80;1.85;;;;;;;;;;5011248;28;20038;-66
2022/03/01 03:18:14;;;;;;;5.00;1.70;;;;;;;;;;5010735;28;20370;-65
2022/03/01 03:20:40;;;;;;;5.60;1.95;;;;;;;;;;5010548;28;20481;-65
2022/03/01 03:23:05;;;;;;;6.43;1.65;;;;;;;;;;5010689;28;20083;-65
2022/03/01 03:25:31;;;;;;;6.18;1.88;;;;;;;;;;5010811;28;20030;-65
2022/03/01 03:27:57;;;;;;;9.25;1.63;;;;;;;;;;5010996;28;20037;-66
2022/03/01 03:30:23;;;;;;;7.97;2.13;;;;;;;;;;5010609;28;20055;-65
2022/03/01 03:32:48;;;;;;;7.80;1.70;;;;;;;;;;5010540;28;20046;-65
2022/03/01 03:35:14;;;;;;;7.50;1.92;;;;;;;;;;5010633;28;20113;-65
2022/03/01 03:37:39;;;;;;;11.98;2.30;;;;;;;;;;5010568;28;20026;-65
2022/03/01 03:40:05;;;;;;;10.25;2.88;;;;;;;;;;5010353;28;20034;-65
2022/03/01 03:42:30;;;;;;;12.75;3.28;;;;;;;;;;5010360;28;20026;-65
2022/03/01 03:44:56;;;;;;;6.60;2.90;;;;;;;;;;5010360;28;20030;-66
2022/03/01 03:47:22;;;;;;;9.13;3.78;;;;;;;;;;5010549;28;20548;-65
2022/03/01 03:49:47;;;;;;;8.43;3.10;;;;;;;;;;5010405;28;20101;-65
2022/03/01 03:52:13;;;;;;;10.43;3.60;;;;;;;;;;5010818;28;20030;-66
2022/03/01 03:54:38;;;;;;;9.60;3.45;;;;;;;;;;5010532;28;20223;-65
2022/03/01 03:57:08;;;;;;;7.95;3.90;;;;;;;;;;5010679;28;20053;-66
2022/03/01 03:59:34;;;;;;;6.90;3.78;;;;;;;;;;5010123;28;20032;-65
2022/03/01 04:02:03;;;;;;;11.77;4.28;;;;;;;;;;5010328;28;20480;-66
2022/03/01 04:04:28;;;;;;;13.90;4.45;;;;;;;;;;5010471;28;20030;-66
2022/03/01 04:06:54;;;;;;;10.57;6.43;;;;;;;;;;5010542;28;20454;-66
2022/03/01 04:09:19;;;;;;;17.30;7.45;;;;;;;;;;5010354;28;20450;-66
2022/03/01 04:11:45;;;;;;;15.93;7.60;;;;;;;;;;5010207;28;20026;-66
2022/03/01 04:14:10;;;;;;;20.02;7.65;;;;;;;;;;5010338;28;20034;-66
2022/03/01 04:16:38;;;;;;;24.60;7.50;;;;;;;;;;5009973;28;20022;-65
2022/03/01 04:19:03;;;;;;;23.45;8.25;;;;;;;;;;5009987;28;20057;-66
2022/03/01 04:21:29;;;;;;;18.10;7.25;;;;;;;;;;5009968;28;20390;-66
2022/03/01 04:23:55;;;;;;;21.50;7.07;;;;;;;;;;5010423;28;20462;-66
2022/03/01 04:26:20;;;;;;;21.63;8.00;;;;;;;;;;5012930;28;20026;-65
2022/03/01 04:28:46;;;;;;;20.38;7.93;;;;;;;;;;5013954;28;20107;-66
2022/03/01 04:31:11;;;;;;;17.10;7.78;;;;;;;;;;5013713;28;20045;-66
2022/03/01 04:33:37;;;;;;;19.05;7.30;;;;;;;;;;5013579;28;20048;-66
2022/03/01 04:36:03;;;;;;;18.95;8.10;;;;;;;;;;5013716;28;20050;-66
2022/03/01 04:38:30;;;;;;;21.52;8.68;;;;;;;;;;5013510;28;20041;-66
2022/03/01 04:40:56;;;;;;;21.52;8.93;;;;;;;;;;5013314;28;20037;-66
2022/03/01 04:43:22;;;;;;;22.63;9.35;;;;;;;;;;5013446;28;20038;-66
2022/03/01 04:45:48;;;;;;;19.73;9.48;;;;;;;;;;5013745;28;20065;-66
2022/03/01 04:48:14;;;;;;;21.88;10.90;;;;;;;;;;5013566;28;20502;-66
2022/03/01 04:50:39;;;;;;;27.75;10.18;;;;;;;;;;5013356;28;20034;-66
2022/03/01 04:53:05;;;;;;;20.65;9.75;;;;;;;;;;5013580;28;20433;-66
2022/03/01 04:55:31;;;;;;;26.27;9.93;;;;;;;;;;5013154;28;20272;-66
2022/03/01 04:57:57;;;;;;;20.10;9.00;;;;;;;;;;5013277;28;20034;-66
2022/03/01 05:00:22;;;;;;;19.88;9.35;;;;;;;;;;5012846;28;20034;-65
2022/03/01 05:02:48;;;;;;;20.67;8.93;;;;;;;;;;5013223;28;20037;-65
2022/03/01 05:05:15;;;;;;;28.17;9.45;;;;;;;;;;5013255;28;20497;-66
2022/03/01 05:07:42;;;;;;;26.35;8.90;;;;;;;;;;5013040;28;20029;-66
2022/03/01 05:10:09;;;;;;;23.65;8.88;;;;;;;;;;5012756;28;20034;-65
2022/03/01 05:12:52;;;;;;;19.17;7.97;;;;;;;;;;5013048;28;20469;-67
2022/03/01 05:15:18;;;;;;;18.15;7.72;;;;;;;;;;5012700;28;20034;-66
2022/03/01 05:17:45;;;;;;;21.38;8.15;;;;;;;;;;5013152;28;20180;-66
2022/03/01 05:20:11;;;;;;;17.25;7.63;;;;;;;;;;5012660;28;20038;-66
2022/03/01 05:22:37;;;;;;;20.23;8.05;;;;;;;;;;5012877;28;20022;-66
2022/03/01 05:25:09;;;;;;;21.17;7.82;;;;;;;;;;5012740;28;20033;-66
2022/03/01 05:27:36;;;;;;;17.40;7.68;;;;;;;;;;5012663;28;20026;-66
2022/03/01 05:30:02;;;;;;;16.17;6.97;;;;;;;;;;5012449;28;20385;-66
2022/03/01 05:32:27;;;;;;;18.23;5.30;;;;;;;;;;5012470;28;20504;-66
2022/03/01 05:34:53;;;;;;;13.27;6.20;;;;;;;;;;5012464;28;20537;-66
2022/03/01 05:37:19;;;;;;;20.55;6.85;;;;;;;;;;5011982;28;20034;-66
2022/03/01 05:39:44;;;;;;;15.13;6.90;;;;;;;;;;5012514;28;20061;-66
2022/03/01 05:42:10;;;;;;;14.20;6.30;;;;;;;;;;5012371;28;20109;-66
2022/03/01 05:44:35;;;;;;;16.38;6.40;;;;;;;;;;5012388;28;20481;-65
2022/03/01 05:47:01;;;;;;;14.95;6.30;;;;;;;;;;5012685;28;20417;-66
2022/03/01 05:49:26;;;;;;;18.45;6.22;;;;;;;;;;5012260;28;20056;-66
2022/03/01 05:51:52;;;;;;;12.20;5.53;;;;;;;;;;5012565;28;20030;-66
2022/03/01 05:54:18;;;;;;;11.23;5.28;;;;;;;;;;5012052;28;20033;-66
2022/03/01 05:56:43;;;;;;;18.25;5.93;;;;;;;;;;5012613;28;20021;-66
2022/03/01 05:59:08;;;;;;;18.45;5.43;;;;;;;;;;5012173;28;20064;-66
2022/03/01 06:01:34;;;;;;;9.80;4.43;;;;;;;;;;5011868;28;20033;-65
2022/03/01 06:03:59;;;;;;;12.05;4.97;;;;;;;;;;5012255;28;20394;-66
2022/03/01 06:06:25;;;;;;;12.88;4.97;;;;;;;;;;5012145;28;20026;-66
2022/03/01 06:08:50;;;;;;;11.95;4.90;;;;;;;;;;5011975;28;20041;-66
2022/03/01 06:11:16;;;;;;;19.02;4.97;;;;;;;;;;5011834;28;20045;-65
2022/03/01 06:13:43;;;;;;;14.40;4.45;;;;;;;;;;5011718;28;20022;-66
2022/03/01 06:16:09;;;;;;;13.00;5.18;;;;;;;;;;5011649;28;20022;-66
2022/03/01 06:18:35;;;;;;;19.83;6.25;;;;;;;;;;5011864;28;20104;-65
2022/03/01 06:21:01;;;;;;;12.27;5.00;;;;;;;;;;5011599;28;20105;-65
2022/03/01 06:23:27;;;;;;;15.82;5.45;;;;;;;;;;5011675;28;20017;-65
2022/03/01 06:25:53;;;;;;;10.85;5.32;;;;;;;;;;5011695;28;20029;-65
2022/03/01 06:28:19;;;;;;;10.20;4.18;;;;;;;;;;5011529;28;20022;-65
2022/03/01 06:30:44;;;;;;;18.08;5.47;;;;;;;;;;5011171;28;20018;-65
2022/03/01 06:33:10;;;;;;;16.98;6.20;;;;;;;;;;5011094;28;20040;-66
2022/03/01 06:35:35;;;;;;;15.57;5.97;;;;;;;;;;5011333;28;20030;-65
2022/03/01 06:38:01;;;;;;;15.18;6.22;;;;;;;;;;5011383;28;20076;-65
2022/03/01 06:40:28;;;;;;;12.55;5.63;;;;;;;;;;5011141;28;20030;-65
2022/03/01 06:42:54;;;;;;;15.25;6.15;;;;;;;;;;5011583;28;20390;-65
2022/03/01 06:45:20;;;;;;;16.98;6.60;;;;;;;;;;5011453;28;20034;-66
2022/03/01 06:47:46;;;;;;;15.02;5.88;;;;;;;;;;5010781;28;20029;-65
2022/03/01 06:50:12;;;;;;;17.00;6.40;;;;;;;;;;5011288;28;20080;-65
2022/03/01 06:52:37;;;;;;;16.92;7.10;;;;;;;;;;5010818;28;20030;-65
2022/03/01 06:55:05;;;;;;;14.65;6.75;;;;;;;;;;5011026;28;20076;-65
2022/03/01 06:57:30;;;;;;;12.55;6.55;;;;;;;;;;5011074;28;20026;-65
2022/03/01 06:59:56;;;;;;;12.52;6.07;;;;;;;;;;5010947;28;20029;-65
2022/03/01 07:02:22;;;;;;;15.73;6.22;;;;;;;;;;5010978;28;20060;-66
2022/03/01 07:04:48;;;;;;;18.40;6.45;;;;;;;;;;5010970;28;20052;-65
2022/03/01 07:07:13;;;;;;;17.15;5.93;;;;;;;;;;5010709;28;20564;-65
2022/03/01 07:09:39;;;;;;;18.10;5.30;;;;;;;;;;5010869;28;20034;-66
2022/03/01 07:12:05;;;;;;;16.55;5.38;;;;;;;;;;5010613;28;20490;-65
2022/03/01 07:14:30;;;;;;;16.13;6.75;;;;;;;;;;5010603;28;20116;-65
2022/03/01 07:16:56;;;;;;;13.02;6.35;;;;;;;;;;5009450;28;20036;-66
2022/03/01 07:19:21;;;;;;;12.02;6.25;;;;;;;;;;5010610;28;20473;-65
2022/03/01 07:21:46;;;;;;;17.17;6.75;;;;;;;;;;5010764;28;20481;-65
2022/03/01 07:24:12;;;;;;;17.00;8.30;;;;;;;;;;5010542;28;20026;-65
2022/03/01 07:26:37;;;;;;;20.90;8.82;;;;;;;;;;5010738;28;20214;-65
2022/03/01 07:29:03;;;;;;;16.88;8.45;;;;;;;;;;5010653;28;20029;-65
2022/03/01 07:31:29;;;;;;;14.85;7.82;;;;;;;;;;5010130;28;20049;-65
2022/03/01 07:33:54;;;;;;;14.65;7.40;;;;;;;;;;5010195;28;20042;-65
2022/03/01 07:36:20;;;;;;;15.95;8.05;;;;;;;;;;5010440;28;20037;-66
2022/03/01 07:38:45;;;;;;;17.67;8.88;;;;;;;;;;5010634;28;20303;-64
2022/03/01 07:41:11;;;;;;;20.38;9.32;;;;;;;;;;5010176;28;20374;-65
2022/03/01 07:43:36;;;;;;;23.73;9.15;;;;;;;;;;5010408;28;20108;-65
2022/03/01 07:46:03;;;;;;;19.73;9.32;;;;;;;;;;5010462;28;20084;-65
2022/03/01 07:48:28;;;;;;;18.10;9.10;;;;;;;;;;5010283;28;20032;-66
2022/03/01 07:50:54;;;;;;;17.02;8.93;;;;;;;;;;5010104;28;20400;-65
2022/03/01 07:53:19;;;;;;;18.33;9.07;;;;;;;;;;5010202;28;20070;-65
2022/03/01 07:55:45;;;;;;;19.70;9.25;;;;;;;;;;5010542;28;20026;-65
2022/03/01 07:58:10;;;;;;;18.15;9.65;;;;;;;;;;5010407;28;20196;-65
2022/03/01 08:00:37;;;;;;;19.58;10.48;;;;;;;;;;5013892;28;20107;-65
2022/03/01 08:03:02;;;;;;;21.05;11.15;;;;;;;;;;5014267;28;20030;-66
2022/03/01 08:05:28;;;;;;;19.90;11.00;;;;;;;;;;5014227;28;20041;-65
2022/03/01 08:07:56;;;;;;;19.30;11.05;;;;;;;;;;5014244;28;20250;-66
2022/03/01 08:10:22;;;;;;;21.92;11.30;;;;;;;;;;5014170;28;20030;-65
2022/03/01 08:12:47;;;;;;;20.88;11.15;;;;;;;;;;5013894;28;20105;-65
2022/03/01 08:15:13;;;;;;;21.60;12.18;;;;;;;;;;5013883;28;20112;-66
2022/03/01 08:17:52;;;;;;;22.38;11.98;;;;;;;;;;5014219;28;20026;-65
2022/03/01 08:20:17;;;;;;;22.40;12.00;;;;;;;;;;5013836;28;20392;-65
2022/03/01 08:22:43;;;;;;;21.60;11.80;;;;;;;;;;5013833;28;20481;-66
2022/03/01 08:25:09;;;;;;;22.30;12.32;;;;;;;;;;5014037;28;20037;-65
2022/03/01 08:27:34;;;;;;;22.05;12.25;;;;;;;;;;5013720;28;20406;-65
2022/03/01 08:29:59;;;;;;;21.30;12.00;;;;;;;;;;5013652;28;20109;-65
2022/03/01 08:32:25;;;;;;;24.13;12.02;;;;;;;;;;5013697;28;20113;-65
2022/03/01 08:34:50;;;;;;;21.05;13.02;;;;;;;;;;5013688;28;20060;-65
2022/03/01 08:37:16;;;;;;;20.25;12.18;;;;;;;;;;5013823;28;20034;-65
2022/03/01 08:39:41;;;;;;;20.27;12.52;;;;;;;;;;5013675;28;20021;-65
2022/03/01 08:42:07;;;;;;;20.52;11.63;;;;;;;;;;5013612;28;20045;-65
2022/03/01 08:44:32;;;;;;;22.95;12.63;;;;;;;;;;5013282;28;20176;-66
2022/03/01 08:46:57;;;;;;;24.15;12.68;;;;;;;;;;5013763;28;20026;-65
2022/03/01 08:49:23;;;;;;;19.42;11.63;;;;;;;;;;5013378;28;20029;-65
2022/03/01 08:51:48;;;;;;;24.13;13.05;;;;;;;;;;5013327;28;20117;-65
2022/03/01 08:54:14;;;;;;;22.63;12.07;;;;;;;;;;5013430;28;20041;-65
2022/03/01 08:56:40;;;;;;;21.48;11.68;;;;;;;;;;5013652;28;20424;-65
2022/03/01 08:59:06;;;;;;;18.90;11.45;;;;;;;;;;5013475;28;20116;-65
2022/03/01 09:01:32;;;;;;;19.33;11.50;;;;;;;;;;5013132;28;20134;-65
2022/03/01 09:03:59;;;;;;;22.60;12.52;;;;;;;;;;5013060;28;20029;-66
2022/03/01 09:06:25;;;;;;;22.02;11.63;;;;;;;;;;5012944;28;20068;-65
2022/03/01 09:08:50;;;;;;;22.13;12.20;;;;;;;;;;5013050;28;20057;-65
2022/03/01 09:11:16;;;;;;;21.48;11.90;;;;;;;;;;5012067;28;20033;-65
2022/03/01 09:13:41;;;;;;;20.65;12.10;;;;;;;;;;5013174;28;20367;-65
2022/03/01 09:16:07;;;;;;;23.35;12.07;;;;;;;;;;5012933;28;20030;-65
2022/03/01 09:18:34;;;;;;;18.63;12.10;;;;;;;;;;5012863;28;20029;-65
2022/03/01 09:21:00;;;;;;;22.48;11.98;;;;;;;;;;5013021;28;20493;-65
2022/03/01 09:23:26;;;;;;;18.98;11.68;;;;;;;;;;5012782;28;20022;-65
2022/03/01 09:25:51;;;;;;;18.75;10.95;;;;;;;;;;5012744;28;20095;-65
2022/03/01 09:28:17;;;;;;;22.17;12.07;;;;;;;;;;5012745;28;20025;-65
2022/03/01 09:30:43;;;;;;;18.35;11.52;;;;;;;;;;5012587;28;20018;-65
2022/03/01 09:33:08;;;;;;;17.05;11.32;;;;;;;;;;5012301;28;20069;-65
2022/03/01 09:35:34;;;;;;;18.98;11.50;;;;;;;;;;5012584;28;20026;-65
2022/03/01 09:38:00;;;;;;;19.45;11.75;;;;;;;;;;5012857;28;20084;-65
2022/03/01 09:40:25;;;;;;;19.58;11.55;;;;;;;;;;5012886;28;20532;-65
2022/03/01 09:42:52;;;;;;;18.58;11.85;;;;;;;;;;5012318;28;20157;-65
2022/03/01 09:45:17;;;;;;;19.10;11.75;;;;;;;;;;5012228;28;20224;-65
2022/03/01 09:47:43;;;;;;;18.00;11.35;;;;;;;;;;5012359;28;20228;-65
2022/03/01 09:50:10;;;;;;;18.63;11.88;;;;;;;;;;5012337;28;20064;-65
2022/03/01 09:52:36;;;;;;;20.50;12.63;;;;;;;;;;5012255;28;20026;-65
2022/03/01 09:55:01;;;;;;;22.35;13.05;;;;;;;;;;5012349;28;20036;-65
2022/03/01 09:57:27;;;;;;;19.63;13.05;;;;;;;;;;5011055;28;20107;-65
2022/03/01 09:59:53;;;;;;;22.55;12.07;;;;;;;;;;5012182;28;20018;-65
2022/03/01 10:02:19;;;;;;;20.10;12.68;;;;;;;;;;5011852;28;20032;-66
2022/03/01 10:04:55;;;;;;;18.90;12.43;;;;;;;;;;5011792;28;20030;-66
2022/03/01 10:07:23;;;;;;;17.33;11.82;;;;;;;;;;5011910;28;20033;-64
2022/03/01 10:09:49;;;;;;;19.00;12.65;;;;;;;;;;5012320;28;20050;-66
2022/03/01 10:12:30;;;;;;;21.60;12.60;;;;;;;;;;5012206;28;20054;-66
2022/03/01 10:15:03;;;;;;;18.88;12.27;;;;;;;;;;5011906;28;20034;-66
2022/03/01 10:17:40;;;;;;;18.65;11.32;;;;;;;;;;5011901;28;20156;-65
2022/03/01 10:20:08;;;;;;;15.48;11.07;;;;;;;;;;5011852;28;20544;-65
2022/03/01 10:22:46;;;;;;;13.25;9.30;;;;;;;;;;5011370;28;20532;-67
2022/03/01 10:25:14;;;;;;;16.35;9.68;;;;;;;;;;5011552;28;20492;-66
2022/03/01 10:27:39;;;;;;;13.65;8.90;;;;;;;;;;5011968;28;20065;-65
2022/03/01 10:30:06;;;;;;;16.58;8.18;;;;;;;;;;5011494;28;20233;-66
2022/03/01 10:32:33;;;;;;;12.15;7.32;;;;;;;;;;5011295;28;20115;-66
2022/03/01 10:35:02;;;;;;;13.82;8.40;;;;;;;;;;5011512;28;20033;-65
2022/03/01 10:37:29;;;;;;;15.40;8.80;;;;;;;;;;5011590;28;20025;-65
2022/03/01 10:40:10;;;;;;;13.20;8.63;;;;;;;;;;5011534;28;20101;-66
2022/03/01 10:42:36;;;;;;;;;;;;;;;;;;5011543;28;20025;-65
2022/03/01 10:45:01;;;;;;;16.05;7.93;;;;;;;;;;5011039;28;19921;-66
2022/03/01 10:47:28;;;;;;;14.32;8.18;;;;;;;;;;5011420;28;20036;-66
2022/03/01 10:50:02;;;;;;;13.90;8.27;;;;;;;;;;5011483;28;20041;-65
2022/03/01 10:52:35;;;;;;;13.65;8.20;;;;;;;;;;5011090;28;20113;-66
2022/03/01 10:55:01;;;;;;;15.30;8.52;;;;;;;;;;5011226;28;20026;-66
2022/03/01 10:57:27;;;;;;;14.73;8.38;;;;;;;;;;5011070;28;20021;-65
2022/03/01 10:59:52;;;;;;;16.13;8.13;;;;;;;;;;5010926;28;20477;-65
2022/03/01 11:02:19;;;;;;;13.95;7.85;;;;;;;;;;5010827;28;20038;-65
2022/03/01 11:04:45;;;;;;;14.70;8.75;;;;;;;;;;5010819;28;20021;-65
2022/03/01 11:07:12;;;;;;;15.20;8.50;;;;;;;;;;5010849;28;20034;-66
2022/03/01 11:09:38;;;;;;;13.75;7.32;;;;;;;;;;5011263;28;20101;-66
2022/03/01 11:12:06;;;;;;;15.88;8.38;;;;;;;;;;5011139;28;20030;-65
2022/03/01 11:15:00;;;;;;;12.50;7.60;;;;;;;;;;5010892;28;20485;-65
2022/03/01 11:17:50;;;;;;;13.50;8.10;;;;;;;;;;5010810;28;20026;-65
2022/03/01 11:20:23;;;;;;;13.55;7.85;;;;;;;;;;5010730;28;20026;-65
2022/03/01 11:22:57;;;;;;;13.88;8.07;;;;;;;;;;5010721;28;20029;-65
2022/03/01 11:25:25;;;;;;;15.15;8.57;;;;;;;;;;5010456;28;20508;-65
2022/03/01 11:28:02;;;;;;;15.10;8.15;;;;;;;;;;5010804;28;20028;-65
2022/03/01 11:30:36;;;;;;;16.70;7.78;;;;;;;;;;5010824;28;20092;-65
2022/03/01 11:33:01;;;;;;;15.88;7.47;;;;;;;;;;5010437;28;20045;-65
2022/03/01 11:35:29;;;;;;;14.50;8.48;;;;;;;;;;5009962;28;20026;-65
2022/03/01 11:38:15;;;;;;;13.55;7.63;;;;;;;;;;5010646;28;20022;-66
2022/03/01 11:40:44;;;;;;;16.88;8.40;;;;;;;;;;5010283;28;20130;-65
2022/03/01 11:43:31;;;;;;;15.43;8.45;;;;;;;;;;5010121;28;20478;-65
2022/03/01 11:46:00;;;;;;;13.10;7.90;;;;;;;;;;5010177;28;20033;-65
2022/03/01 11:48:28;;;;;;;13.93;7.93;;;;;;;;;;5010638;28;20033;-65
2022/03/01 11:50:59;;;;;;;14.07;7.75;;;;;;;;;;5010566;28;20028;-65
2022/03/01 11:53:28;;;;;;;15.50;8.90;;;;;;;;;;5010427;28;20049;-66
2022/03/01 11:55:57;;;;;;;14.93;8.63;;;;;;;;;;5010306;28;20048;-65
2022/03/01 11:58:24;;;;;;;15.23;7.90;;;;;;;;;;5010305;28;20029;-65
2022/03/01 12:00:51;;;;;;;17.17;8.50;;;;;;;;;;5010170;28;20473;-66
2022/03/01 12:03:20;;;;;;;12.68;7.93;;;;;;;;;;5010041;28;20486;-66
2022/03/01 12:05:47;;;;;;;15.32;7.82;;;;;;;;;;5010488;28;20210;-65
2022/03/01 12:08:14;;;;;;;17.75;8.27;;;;;;;;;;5010286;28;20022;-66
2022/03/01 12:10:54;;;;;;;15.40;9.15;;;;;;;;;;5010377;28;20068;-65
2022/03/01 12:13:21;;;;;;;14.10;8.15;;;;;;;;;;5009849;28;20425;-65
2022/03/01 12:15:55;;;;;;;16.40;8.73;;;;;;;;;;5009958;28;20042;-65
2022/03/01 12:18:28;;;;;;;13.52;8.25;;;;;;;;;;5010117;28;20029;-65
2022/03/01 12:21:09;;;;;;;17.80;8.52;;;;;;;;;;5009862;28;20057;-65
2022/03/01 12:23:35;;;;;;;;;;;;;;;;;;5010301;28;20428;-65
2022/03/01 12:26:07;;;;;;;14.55;7.90;;;;;;;;;;5010012;28;19913;-66
2022/03/01 12:28:46;;;;;;;14.70;7.95;;;;;;;;;;5010178;28;20147;-66
2022/03/01 12:31:14;;;;;;;14.82;8.10;;;;;;;;;;5010121;28;20018;-65
2022/03/01 12:34:00;;;;;;;15.60;7.93;;;;;;;;;;5009721;28;20509;-65
2022/03/01 12:36:36;;;;;;;14.38;7.72;;;;;;;;;;5010124;28;20030;-65
2022/03/01 12:39:12;;;;;;;12.88;7.15;;;;;;;;;;5010065;28;20036;-65
2022/03/01 12:41:40;;;;;;;13.35;7.22;;;;;;;;;;5010022;28;20084;-65
2022/03/01 12:44:08;;;;;;;14.43;7.25;;;;;;;;;;5008603;28;20403;-65
2022/03/01 12:46:35;;;;;;;17.35;6.95;;;;;;;;;;5011429;28;20087;-65
2022/03/01 12:49:07;;;;;;;13.13;6.88;;;;;;;;;;5013591;28;20030;-65
2022/03/01 12:51:33;;;;;;;15.13;7.18;;;;;;;;;;5013795;28;20506;-65
2022/03/01 12:53:59;;;;;;;10.75;6.97;;;;;;;;;;5013231;28;20252;-65
2022/03/01 12:56:27;;;;;;;13.23;6.80;;;;;;;;;;5013328;28;20029;-65
2022/03/01 12:58:55;;;;;;;12.32;5.85;;;;;;;;;;5013271;28;20030;-65
2022/03/01 13:01:22;;;;;;;10.85;6.18;;;;;;;;;;5013130;28;20025;-66
2022/03/01 13:03:49;;;;;;;9.75;5.72;;;;;;;;;;5013231;28;20185;-66
2022/03/01 13:06:19;;;;;;;10.30;5.95;;;;;;;;;;5013453;28;20030;-65
2022/03/01 13:08:47;;;;;;;11.23;5.55;;;;;;;;;;5013087;28;20037;-66
2022/03/01 13:11:15;;;;;;;12.93;5.47;;;;;;;;;;5013201;28;20033;-66
2022/03/01 13:13:42;;;;;;;11.55;6.20;;;;;;;;;;5012798;28;20493;-65
2022/03/01 13:16:07;;;;;;;10.45;5.78;;;;;;;;;;5012834;28;20500;-66
2022/03/01 13:18:33;;;;;;;11.80;5.57;;;;;;;;;;5012924;28;20035;-65
2022/03/01 13:20:58;;;;;;;12.10;6.20;;;;;;;;;;5012962;28;20478;-65
2022/03/01 13:23:31;;;;;;;9.73;5.70;;;;;;;;;;5012783;28;20037;-65
2022/03/01 13:25:59;;;;;;;9.98;5.45;;;;;;;;;;5012862;28;20030;-65
2022/03/01 13:28:34;;;;;;;9.55;5.43;;;;;;;;;;5012962;28;20053;-65
2022/03/01 13:31:00;;;;;;;9.60;5.55;;;;;;;;;;5012732;28;20083;-65
2022/03/01 13:33:28;;;;;;;9.52;5.35;;;;;;;;;;5012392;28;20049;-66
2022/03/01 13:35:54;;;;;;;9.60;5.30;;;;;;;;;;5012462;28;20057;-65
2022/03/01 13:38:20;;;;;;;15.93;5.55;;;;;;;;;;5012389;28;20079;-65
2022/03/01 13:40:46;;;;;;;8.23;5.22;;;;;;;;;;5012681;28;20482;-65
2022/03/01 13:43:22;;;;;;;12.38;6.00;;;;;;;;;;5012222;28;20030;-65
2022/03/01 13:45:58;;;;;;;10.40;5.32;;;;;;;;;;5012510;28;20030;-65
2022/03/01 13:48:26;;;;;;;12.00;5.18;;;;;;;;;;5012491;28;20165;-65
2022/03/01 13:50:59;;;;;;;9.68;5.18;;;;;;;;;;5012380;28;20465;-65
2022/03/01 13:53:25;;;;;;;9.27;4.88;;;;;;;;;;5012029;28;20091;-65
2022/03/01 13:55:54;;;;;;;10.90;5.22;;;;;;;;;;5012076;28;20033;-65
2022/03/01 13:58:21;;;;;;;8.35;5.13;;;;;;;;;;5011807;28;20030;-65
2022/03/01 14:00:49;;;;;;;10.27;5.28;;;;;;;;;;5012129;28;20026;-64
2022/03/01 14:03:23;;;;;;;10.40;5.00;;;;;;;;;;5011866;28;20037;-65
2022/03/01 14:05:59;;;;;;;11.10;5.60;;;;;;;;;;5012602;28;20165;-65
2022/03/01 14:08:27;;;;;;;11.50;5.00;;;;;;;;;;5011958;28;20037;-65
2022/03/01 14:10:58;;;;;;;13.30;4.70;;;;;;;;;;5011962;28;20265;-65
2022/03/01 14:13:30;;;;;;;12.90;5.43;;;;;;;;;;5011914;28;20041;-65
2022/03/01 14:16:10;;;;;;;9.55;5.13;;;;;;;;;;5011477;28;20115;-65
2022/03/01 14:18:48;;;;;;;8.93;5.13;;;;;;;;;;5011819;28;20037;-65
2022/03/01 14:21:16;;;;;;;11.65;5.28;;;;;;;;;;5012272;28;20343;-65
2022/03/01 14:23:43;;;;;;;10.77;5.00;;;;;;;;;;5011634;28;20018;-65
2022/03/01 14:26:10;;;;;;;11.20;4.95;;;;;;;;;;5012109;28;20030;-66
2022/03/01 14:28:36;;;;;;;9.23;4.85;;;;;;;;;;5011729;28;20033;-65
2022/03/01 14:31:05;;;;;;;8.23;4.90;;;;;;;;;;5011442;28;20026;-65